PRIVATE WETTERSTATION BILLIGHEIM-ALLFELD                       ZURCK
Wetterdaten: Mittwoch, 05.07.2017
Datum Zeit Temp. A. Temp. A. min Temp. A. max Feuchte A. Luftdruck Regen Wind Richtung Richtung Sonnenschein ET Solar Taupunkt Windchill Windben Empfang
05.07.2017 00:00 16,2 C 16,2 C 16,5 C 83 % 1017,8 hPa 0,0 l/m 0,0 km/h (0 Bft) N 0 0 min 0,025 mm 0 W/m 13,3 C 16,2 C 0,0 km/h (0 Bft) 99 %
05.07.2017 00:10 16,0 C 16,0 C 16,2 C 84 % 1017,7 hPa 0,0 l/m 0,0 km/h (0 Bft) N 0 0 min 0,000 mm 0 W/m 13,3 C 16,0 C 0,0 km/h (0 Bft) 100 %
05.07.2017 00:20 15,8 C 15,8 C 16,0 C 85 % 1017,7 hPa 0,0 l/m 0,0 km/h (0 Bft) N 0 0 min 0,000 mm 0 W/m 13,3 C 15,8 C 0,0 km/h (0 Bft) 100 %
05.07.2017 00:30 15,6 C 15,6 C 15,8 C 86 % 1017,6 hPa 0,0 l/m 0,0 km/h (0 Bft) N 0 0 min 0,000 mm 0 W/m 13,3 C 15,6 C 0,0 km/h (0 Bft) 89 %
05.07.2017 00:40 15,5 C 15,4 C 15,7 C 86 % 1017,6 hPa 0,0 l/m 0,0 km/h (0 Bft) N 0 0 min 0,000 mm 0 W/m 13,2 C 15,5 C 0,0 km/h (0 Bft) 100 %
05.07.2017 00:50 15,3 C 15,3 C 15,4 C 87 % 1017,5 hPa 0,0 l/m 0,0 km/h (0 Bft) N 0 0 min 0,000 mm 0 W/m 13,1 C 15,3 C 0,0 km/h (0 Bft) 100 %
05.07.2017 01:00 15,1 C 15,1 C 15,3 C 87 % 1017,4 hPa 0,0 l/m 0,0 km/h (0 Bft) N 0 0 min 0,000 mm 0 W/m 13,0 C 15,1 C 0,0 km/h (0 Bft) 100 %
05.07.2017 01:10 15,1 C 15,1 C 15,1 C 88 % 1017,3 hPa 0,0 l/m 0,0 km/h (0 Bft) N 0 0 min 0,000 mm 0 W/m 13,1 C 15,1 C 0,0 km/h (0 Bft) 100 %
05.07.2017 01:20 15,0 C 15,0 C 15,1 C 88 % 1017,4 hPa 0,0 l/m 0,0 km/h (0 Bft) N 0 0 min 0,000 mm 0 W/m 13,0 C 15,0 C 0,0 km/h (0 Bft) 100 %
05.07.2017 01:30 14,9 C 14,9 C 15,0 C 88 % 1017,3 hPa 0,0 l/m 0,0 km/h (0 Bft) N 0 0 min 0,000 mm 0 W/m 12,9 C 14,9 C 0,0 km/h (0 Bft) 100 %
05.07.2017 01:40 14,8 C 14,8 C 14,9 C 88 % 1017,3 hPa 0,0 l/m 0,0 km/h (0 Bft) N 0 0 min 0,000 mm 0 W/m 12,8 C 14,8 C 0,0 km/h (0 Bft) 100 %
05.07.2017 01:50 14,8 C 14,8 C 14,8 C 88 % 1017,2 hPa 0,0 l/m 0,0 km/h (0 Bft) N 0 0 min 0,000 mm 0 W/m 12,8 C 14,8 C 0,0 km/h (0 Bft) 100 %
05.07.2017 02:00 14,7 C 14,7 C 14,8 C 88 % 1017,2 hPa 0,0 l/m 0,0 km/h (0 Bft) N 0 0 min 0,000 mm 0 W/m 12,7 C 14,7 C 0,0 km/h (0 Bft) 100 %
05.07.2017 02:10 14,6 C 14,6 C 14,7 C 89 % 1017,2 hPa 0,0 l/m 0,0 km/h (0 Bft) N 0 0 min 0,000 mm 0 W/m 12,8 C 14,6 C 0,0 km/h (0 Bft) 100 %
05.07.2017 02:20 14,4 C 14,4 C 14,6 C 89 % 1017,2 hPa 0,0 l/m 0,0 km/h (0 Bft) N 0 0 min 0,000 mm 0 W/m 12,6 C 14,4 C 0,0 km/h (0 Bft) 100 %
05.07.2017 02:30 14,3 C 14,3 C 14,4 C 89 % 1017,1 hPa 0,0 l/m 0,0 km/h (0 Bft) N 0 0 min 0,000 mm 0 W/m 12,5 C 14,3 C 0,0 km/h (0 Bft) 100 %
05.07.2017 02:40 14,1 C 14,1 C 14,3 C 89 % 1017,0 hPa 0,0 l/m 0,0 km/h (0 Bft) N 0 0 min 0,000 mm 0 W/m 12,3 C 14,1 C 0,0 km/h (0 Bft) 100 %
05.07.2017 02:50 14,0 C 14,0 C 14,1 C 89 % 1017,0 hPa 0,0 l/m 0,0 km/h (0 Bft) N 0 0 min 0,000 mm 0 W/m 12,2 C 14,0 C 0,0 km/h (0 Bft) 100 %
05.07.2017 03:00 13,8 C 13,8 C 14,0 C 89 % 1017,1 hPa 0,0 l/m 0,0 km/h (0 Bft) N 0 0 min 0,000 mm 0 W/m 12,0 C 13,8 C 0,0 km/h (0 Bft) 100 %
05.07.2017 03:10 13,7 C 13,7 C 13,8 C 89 % 1017,0 hPa 0,0 l/m 0,0 km/h (0 Bft) N 0 0 min 0,000 mm 0 W/m 11,9 C 13,7 C 0,0 km/h (0 Bft) 100 %
05.07.2017 03:20 13,6 C 13,6 C 13,7 C 89 % 1017,0 hPa 0,0 l/m 0,0 km/h (0 Bft) N 0 0 min 0,000 mm 0 W/m 11,8 C 13,6 C 0,0 km/h (0 Bft) 100 %
05.07.2017 03:30 13,4 C 13,4 C 13,6 C 89 % 1016,9 hPa 0,0 l/m 0,0 km/h (0 Bft) N 0 0 min 0,000 mm 0 W/m 11,6 C 13,4 C 0,0 km/h (0 Bft) 100 %
05.07.2017 03:40 13,3 C 13,3 C 13,4 C 90 % 1016,8 hPa 0,0 l/m 0,0 km/h (0 Bft) N 0 0 min 0,000 mm 0 W/m 11,7 C 13,3 C 0,0 km/h (0 Bft) 100 %
05.07.2017 03:50 13,2 C 13,2 C 13,3 C 90 % 1016,8 hPa 0,0 l/m 0,0 km/h (0 Bft) N 0 0 min 0,000 mm 0 W/m 11,6 C 13,2 C 0,0 km/h (0 Bft) 100 %
05.07.2017 04:00 13,1 C 13,1 C 13,2 C 90 % 1016,8 hPa 0,0 l/m 0,0 km/h (0 Bft) N 0 0 min 0,000 mm 0 W/m 11,5 C 13,1 C 0,0 km/h (0 Bft) 100 %
05.07.2017 04:10 13,0 C 13,0 C 13,1 C 90 % 1016,7 hPa 0,0 l/m 0,0 km/h (0 Bft) N 0 0 min 0,000 mm 0 W/m 11,4 C 13,0 C 0,0 km/h (0 Bft) 100 %
05.07.2017 04:20 12,9 C 12,9 C 13,0 C 90 % 1016,7 hPa 0,0 l/m 0,0 km/h (0 Bft) N 0 0 min 0,000 mm 0 W/m 11,3 C 12,9 C 0,0 km/h (0 Bft) 100 %
05.07.2017 04:30 12,8 C 12,8 C 12,9 C 90 % 1016,6 hPa 0,0 l/m 0,0 km/h (0 Bft) N 0 0 min 0,000 mm 0 W/m 11,2 C 12,8 C 0,0 km/h (0 Bft) 100 %
05.07.2017 04:40 12,7 C 12,7 C 12,8 C 90 % 1016,5 hPa 0,0 l/m 0,0 km/h (0 Bft) N 0 0 min 0,000 mm 0 W/m 11,1 C 12,7 C 0,0 km/h (0 Bft) 98 %
05.07.2017 04:50 12,6 C 12,6 C 12,7 C 90 % 1016,6 hPa 0,0 l/m 0,0 km/h (0 Bft) N 0 0 min 0,000 mm 0 W/m 11,0 C 12,6 C 0,0 km/h (0 Bft) 97 %
05.07.2017 05:00 12,6 C 12,5 C 12,6 C 90 % 1016,5 hPa 0,0 l/m 0,0 km/h (0 Bft) N 0 0 min 0,000 mm 0 W/m 11,0 C 12,6 C 0,0 km/h (0 Bft) 98 %
05.07.2017 05:10 12,4 C 12,4 C 12,6 C 90 % 1016,5 hPa 0,0 l/m 0,0 km/h (0 Bft) N 0 0 min 0,000 mm 0 W/m 10,8 C 12,4 C 0,0 km/h (0 Bft) 97 %
05.07.2017 05:20 12,3 C 12,3 C 12,4 C 90 % 1016,4 hPa 0,0 l/m 0,0 km/h (0 Bft) N 0 0 min 0,000 mm 0 W/m 10,7 C 12,3 C 0,0 km/h (0 Bft) 98 %
05.07.2017 05:30 12,3 C 12,3 C 12,3 C 90 % 1016,4 hPa 0,0 l/m 0,0 km/h (0 Bft) N 0 0 min 0,000 mm 5 W/m 10,7 C 12,3 C 0,0 km/h (0 Bft) 97 %
05.07.2017 05:40 12,2 C 12,2 C 12,3 C 90 % 1016,4 hPa 0,0 l/m 0,0 km/h (0 Bft) N 0 0 min 0,000 mm 7 W/m 10,6 C 12,2 C 0,0 km/h (0 Bft) 97 %
05.07.2017 05:50 12,2 C 12,2 C 12,2 C 91 % 1016,4 hPa 0,0 l/m 0,0 km/h (0 Bft) N 0 0 min 0,000 mm 11 W/m 10,8 C 12,2 C 0,0 km/h (0 Bft) 97 %
05.07.2017 06:00 12,1 C 12,1 C 12,2 C 91 % 1016,4 hPa 0,0 l/m 0,0 km/h (0 Bft) N 0 0 min 0,000 mm 12 W/m 10,7 C 12,1 C 0,0 km/h (0 Bft) 98 %
05.07.2017 06:10 12,1 C 12,1 C 12,2 C 90 % 1016,3 hPa 0,0 l/m 0,0 km/h (0 Bft) N 0 0 min 0,000 mm 16 W/m 10,5 C 12,1 C 0,0 km/h (0 Bft) 98 %
05.07.2017 06:20 12,1 C 12,1 C 12,1 C 91 % 1016,4 hPa 0,0 l/m 0,0 km/h (0 Bft) N 0 0 min 0,000 mm 19 W/m 10,7 C 12,1 C 0,0 km/h (0 Bft) 97 %
05.07.2017 06:30 12,2 C 12,1 C 12,2 C 91 % 1016,5 hPa 0,0 l/m 0,0 km/h (0 Bft) N 0 0 min 0,000 mm 23 W/m 10,8 C 12,2 C 0,0 km/h (0 Bft) 98 %
05.07.2017 06:40 12,3 C 12,2 C 12,3 C 91 % 1016,6 hPa 0,0 l/m 0,0 km/h (0 Bft) N 0 0 min 0,000 mm 21 W/m 10,9 C 12,3 C 0,0 km/h (0 Bft) 97 %
05.07.2017 06:50 12,4 C 12,3 C 12,4 C 91 % 1016,5 hPa 0,0 l/m 0,0 km/h (0 Bft) N 0 0 min 0,000 mm 21 W/m 11,0 C 12,4 C 0,0 km/h (0 Bft) 98 %
05.07.2017 07:00 12,5 C 12,4 C 12,5 C 91 % 1016,6 hPa 0,0 l/m 0,0 km/h (0 Bft) N 0 0 min 0,000 mm 19 W/m 11,1 C 12,5 C 0,0 km/h (0 Bft) 98 %
05.07.2017 07:10 12,6 C 12,4 C 12,6 C 91 % 1016,6 hPa 0,0 l/m 0,0 km/h (0 Bft) N 0 0 min 0,000 mm 23 W/m 11,2 C 12,6 C 0,0 km/h (0 Bft) 97 %
05.07.2017 07:20 12,7 C 12,6 C 12,7 C 91 % 1016,6 hPa 0,0 l/m 0,0 km/h (0 Bft) N 0 0 min 0,000 mm 26 W/m 11,3 C 12,7 C 0,0 km/h (0 Bft) 98 %
05.07.2017 07:30 12,9 C 12,7 C 12,9 C 91 % 1016,7 hPa 0,0 l/m 0,0 km/h (0 Bft) N 0 0 min 0,000 mm 26 W/m 11,5 C 12,9 C 0,0 km/h (0 Bft) 97 %
05.07.2017 07:40 13,2 C 12,9 C 13,2 C 91 % 1016,6 hPa 0,0 l/m 0,0 km/h (0 Bft) N 0 0 min 0,000 mm 28 W/m 11,8 C 13,2 C 0,0 km/h (0 Bft) 98 %
05.07.2017 07:50 13,4 C 13,1 C 13,4 C 91 % 1016,6 hPa 0,0 l/m 0,0 km/h (0 Bft) N 0 0 min 0,000 mm 33 W/m 12,0 C 13,4 C 0,0 km/h (0 Bft) 96 %
05.07.2017 08:00 13,7 C 13,4 C 13,7 C 91 % 1016,6 hPa 0,0 l/m 0,0 km/h (0 Bft) N 0 0 min 0,025 mm 35 W/m 12,3 C 13,7 C 0,0 km/h (0 Bft) 98 %
05.07.2017 08:10 14,2 C 13,7 C 14,2 C 91 % 1016,7 hPa 0,0 l/m 0,0 km/h (0 Bft) N 0 0 min 0,000 mm 44 W/m 12,8 C 14,2 C 0,0 km/h (0 Bft) 98 %
05.07.2017 08:20 14,6 C 14,2 C 14,6 C 91 % 1016,8 hPa 0,0 l/m 0,0 km/h (0 Bft) N 0 10 min 0,000 mm 244 W/m 13,1 C 14,6 C 0,0 km/h (0 Bft) 98 %
05.07.2017 08:30 15,4 C 14,6 C 15,4 C 91 % 1016,7 hPa 0,0 l/m 0,0 km/h (0 Bft) N 0 10 min 0,000 mm 390 W/m 13,9 C 15,4 C 0,0 km/h (0 Bft) 98 %
05.07.2017 08:40 16,6 C 15,5 C 16,6 C 90 % 1016,8 hPa 0,0 l/m 0,0 km/h (0 Bft) N 0 10 min 0,000 mm 434 W/m 15,0 C 16,6 C 0,0 km/h (0 Bft) 97 %
05.07.2017 08:50 18,1 C 16,6 C 18,1 C 85 % 1016,8 hPa 0,0 l/m 0,0 km/h (0 Bft) N 0 10 min 0,000 mm 471 W/m 15,5 C 18,1 C 0,0 km/h (0 Bft) 98 %
05.07.2017 09:00 19,4 C 18,1 C 19,4 C 78 % 1016,8 hPa 0,0 l/m 1,6 km/h (1 Bft) O-SO 112 10 min 0,152 mm 503 W/m 15,5 C 19,4 C 6,4 km/h (2 Bft) 98 %
05.07.2017 09:10 20,5 C 19,4 C 20,5 C 80 % 1016,7 hPa 0,0 l/m 0,0 km/h (0 Bft) SO 135 10 min 0,000 mm 531 W/m 16,9 C 20,5 C 1,6 km/h (1 Bft) 98 %
05.07.2017 09:20 21,6 C 20,5 C 21,6 C 78 % 1016,7 hPa 0,0 l/m 0,0 km/h (0 Bft) S-SW 202 10 min 0,000 mm 559 W/m 17,6 C 21,6 C 1,6 km/h (1 Bft) 98 %
05.07.2017 09:30 22,1 C 21,6 C 22,1 C 71 % 1016,7 hPa 0,0 l/m 4,8 km/h (1 Bft) S-SO 157 10 min 0,000 mm 589 W/m 16,6 C 22,1 C 9,7 km/h (2 Bft) 98 %
05.07.2017 09:40 22,4 C 22,1 C 22,4 C 68 % 1016,7 hPa 0,0 l/m 3,2 km/h (1 Bft) S 180 10 min 0,000 mm 613 W/m 16,2 C 22,4 C 11,3 km/h (2 Bft) 98 %
05.07.2017 09:50 22,9 C 22,4 C 22,9 C 71 % 1016,6 hPa 0,0 l/m 4,8 km/h (1 Bft) S 180 10 min 0,000 mm 638 W/m 17,4 C 22,9 C 14,5 km/h (3 Bft) 97 %
05.07.2017 10:00 23,3 C 22,9 C 23,3 C 67 % 1016,6 hPa 0,0 l/m 4,8 km/h (1 Bft) S 180 10 min 0,356 mm 663 W/m 16,8 C 23,3 C 9,7 km/h (2 Bft) 97 %
05.07.2017 10:10 23,6 C 23,2 C 23,6 C 70 % 1016,6 hPa 0,0 l/m 0,0 km/h (0 Bft) S-SO 157 10 min 0,000 mm 691 W/m 17,8 C 23,6 C 6,4 km/h (2 Bft) 98 %
05.07.2017 10:20 23,9 C 23,7 C 24,0 C 67 % 1016,7 hPa 0,0 l/m 0,0 km/h (0 Bft) S-SW 202 10 min 0,000 mm 710 W/m 17,4 C 23,9 C 1,6 km/h (1 Bft) 98 %
05.07.2017 10:30 24,4 C 24,0 C 24,4 C 67 % 1016,7 hPa 0,0 l/m 0,0 km/h (0 Bft) S 180 10 min 0,000 mm 733 W/m 17,9 C 24,4 C 1,6 km/h (1 Bft) 89 %
05.07.2017 10:40 25,2 C 24,0 C 25,2 C 64 % 1016,6 hPa 0,0 l/m 0,0 km/h (0 Bft) W-SW 258 10 min 0,000 mm 751 W/m 17,9 C 25,2 C 1,6 km/h (1 Bft) 100 %
05.07.2017 10:50 25,7 C 25,2 C 25,7 C 63 % 1016,6 hPa 0,0 l/m 3,7 km/h (1 Bft) S-SO 153 10 min 0,000 mm 772 W/m 18,1 C 25,7 C 11,3 km/h (2 Bft) 100 %
05.07.2017 11:00 26,3 C 25,7 C 26,3 C 63 % 1016,6 hPa 0,0 l/m 3,9 km/h (1 Bft) W-SW 254 10 min 0,433 mm 791 W/m 18,7 C 26,3 C 11,3 km/h (2 Bft) 99 %
05.07.2017 11:10 26,8 C 26,3 C 26,8 C 57 % 1016,6 hPa 0,0 l/m 5,9 km/h (2 Bft) W 280 10 min 0,000 mm 803 W/m 17,6 C 26,8 C 11,3 km/h (2 Bft) 100 %
05.07.2017 11:20 27,1 C 26,8 C 27,1 C 60 % 1016,7 hPa 0,0 l/m 2,4 km/h (1 Bft) NW 308 10 min 0,000 mm 809 W/m 18,6 C 27,1 C 9,7 km/h (2 Bft) 100 %
05.07.2017 11:30 27,7 C 27,1 C 27,7 C 57 % 1016,6 hPa 0,0 l/m 5,1 km/h (1 Bft) W-SW 256 10 min 0,000 mm 831 W/m 18,4 C 27,7 C 11,3 km/h (2 Bft) 100 %
05.07.2017 11:40 27,8 C 27,7 C 27,8 C 56 % 1016,6 hPa 0,0 l/m 9,7 km/h (2 Bft) NW 320 10 min 0,000 mm 854 W/m 18,2 C 27,3 C 19,3 km/h (3 Bft) 100 %
05.07.2017 11:50 27,8 C 27,7 C 27,8 C 54 % 1016,5 hPa 0,0 l/m 8,1 km/h (2 Bft) W-NW 289 10 min 0,000 mm 868 W/m 17,6 C 27,5 C 19,3 km/h (3 Bft) 100 %
05.07.2017 12:00 27,9 C 27,7 C 27,9 C 58 % 1016,5 hPa 0,0 l/m 6,7 km/h (2 Bft) SW 236 10 min 0,000 mm 918 W/m 18,9 C 27,9 C 19,3 km/h (3 Bft) 100 %
05.07.2017 12:10 28,1 C 27,9 C 28,1 C 56 % 1016,5 hPa 0,0 l/m 7,6 km/h (2 Bft) W-SW 249 10 min 0,584 mm 907 W/m 18,5 C 27,9 C 20,9 km/h (4 Bft) 100 %
05.07.2017 12:20 28,3 C 28,1 C 28,3 C 53 % 1016,5 hPa 0,0 l/m 8,9 km/h (2 Bft) W 267 10 min 0,000 mm 914 W/m 17,8 C 27,9 C 20,9 km/h (4 Bft) 100 %
05.07.2017 12:30 28,4 C 28,3 C 28,4 C 51 % 1016,5 hPa 0,0 l/m 5,1 km/h (1 Bft) W-NW 298 10 min 0,000 mm 939 W/m 17,3 C 28,4 C 16,1 km/h (3 Bft) 100 %
05.07.2017 12:40 28,3 C 28,3 C 28,4 C 54 % 1016,3 hPa 0,0 l/m 7,3 km/h (2 Bft) W 272 10 min 0,000 mm 958 W/m 18,1 C 28,2 C 17,7 km/h (3 Bft) 100 %
05.07.2017 12:50 28,9 C 28,3 C 28,9 C 53 % 1016,3 hPa 0,0 l/m 6,0 km/h (2 Bft) W-NW 298 10 min 0,000 mm 965 W/m 18,3 C 28,9 C 17,7 km/h (3 Bft) 100 %
05.07.2017 13:00 29,1 C 28,9 C 29,1 C 51 % 1016,3 hPa 0,0 l/m 6,9 km/h (2 Bft) NW 317 0 min 0,635 mm 81 W/m 17,9 C 29,0 C 17,7 km/h (3 Bft) 100 %
05.07.2017 13:10 28,4 C 28,4 C 29,1 C 52 % 1016,2 hPa 0,0 l/m 4,5 km/h (1 Bft) W 275 10 min 0,000 mm 1011 W/m 17,6 C 28,4 C 16,1 km/h (3 Bft) 100 %
05.07.2017 13:20 28,7 C 28,4 C 28,7 C 52 % 1016,0 hPa 0,0 l/m 4,8 km/h (1 Bft) S-SW 207 10 min 0,000 mm 905 W/m 17,8 C 28,7 C 16,1 km/h (3 Bft) 100 %
05.07.2017 13:30 28,8 C 28,7 C 28,9 C 50 % 1016,0 hPa 0,0 l/m 7,0 km/h (2 Bft) W 276 10 min 0,000 mm 947 W/m 17,3 C 28,7 C 19,3 km/h (3 Bft) 100 %
05.07.2017 13:40 28,8 C 28,8 C 28,9 C 50 % 1015,9 hPa 0,0 l/m 5,7 km/h (1 Bft) W-NW 288 10 min 0,000 mm 912 W/m 17,3 C 28,8 C 19,3 km/h (3 Bft) 100 %
05.07.2017 13:50 29,0 C 28,8 C 29,0 C 50 % 1015,9 hPa 0,0 l/m 4,8 km/h (1 Bft) W-SW 240 10 min 0,000 mm 853 W/m 17,5 C 29,0 C 19,3 km/h (3 Bft) 100 %
05.07.2017 14:00 28,9 C 28,9 C 29,0 C 48 % 1015,8 hPa 0,0 l/m 6,8 km/h (2 Bft) W 267 10 min 0,609 mm 895 W/m 16,8 C 28,8 C 22,5 km/h (4 Bft) 100 %
05.07.2017 14:10 28,7 C 28,6 C 28,9 C 49 % 1015,8 hPa 0,0 l/m 6,4 km/h (2 Bft) SW 223 10 min 0,000 mm 914 W/m 16,9 C 28,7 C 19,3 km/h (3 Bft) 100 %
05.07.2017 14:20 28,8 C 28,7 C 28,8 C 48 % 1015,8 hPa 0,0 l/m 8,1 km/h (2 Bft) W 277 10 min 0,000 mm 833 W/m 16,7 C 28,6 C 19,3 km/h (3 Bft) 100 %
05.07.2017 14:30 28,8 C 28,8 C 28,8 C 50 % 1015,7 hPa 0,0 l/m 5,3 km/h (1 Bft) SW 229 10 min 0,000 mm 889 W/m 17,3 C 28,8 C 17,7 km/h (3 Bft) 100 %
05.07.2017 14:40 28,8 C 28,8 C 28,8 C 50 % 1015,5 hPa 0,0 l/m 5,3 km/h (1 Bft) S-SW 209 10 min 0,000 mm 882 W/m 17,3 C 28,8 C 17,7 km/h (3 Bft) 100 %
05.07.2017 14:50 28,8 C 28,7 C 28,8 C 46 % 1015,5 hPa 0,0 l/m 7,5 km/h (2 Bft) W-NW 294 10 min 0,000 mm 891 W/m 16,0 C 28,7 C 19,3 km/h (3 Bft) 100 %
05.07.2017 15:00 29,0 C 28,8 C 29,0 C 48 % 1015,4 hPa 0,0 l/m 5,4 km/h (1 Bft) W 270 10 min 0,610 mm 789 W/m 16,9 C 29,0 C 16,1 km/h (3 Bft) 100 %
05.07.2017 15:10 29,3 C 29,0 C 29,3 C 47 % 1015,4 hPa 0,0 l/m 7,2 km/h (2 Bft) W 266 10 min 0,000 mm 761 W/m 16,8 C 29,2 C 16,1 km/h (3 Bft) 100 %
05.07.2017 15:20 29,4 C 29,3 C 29,4 C 47 % 1015,4 hPa 0,0 l/m 4,7 km/h (1 Bft) W-NW 294 10 min 0,000 mm 167 W/m 16,9 C 29,4 C 19,3 km/h (3 Bft) 100 %
05.07.2017 15:30 29,5 C 29,4 C 29,5 C 47 % 1015,4 hPa 0,0 l/m 8,9 km/h (2 Bft) W-NW 297 10 min 0,000 mm 218 W/m 17,0 C 29,2 C 17,7 km/h (3 Bft) 100 %
05.07.2017 15:40 29,6 C 29,4 C 29,6 C 45 % 1015,2 hPa 0,0 l/m 4,8 km/h (1 Bft) N 355 10 min 0,000 mm 183 W/m 16,4 C 29,6 C 17,7 km/h (3 Bft) 100 %
05.07.2017 15:50 29,5 C 29,4 C 29,6 C 43 % 1015,3 hPa 0,0 l/m 10,4 km/h (2 Bft) W-NW 299 10 min 0,000 mm 181 W/m 15,6 C 29,1 C 20,9 km/h (4 Bft) 100 %
05.07.2017 16:00 29,6 C 29,5 C 29,6 C 44 % 1015,3 hPa 0,0 l/m 5,6 km/h (1 Bft) W-NW 284 10 min 0,356 mm 721 W/m 16,0 C 29,6 C 20,9 km/h (4 Bft) 100 %
05.07.2017 16:10 29,6 C 29,5 C 29,6 C 42 % 1015,2 hPa 0,0 l/m 7,5 km/h (2 Bft) NW 308 10 min 0,000 mm 745 W/m 15,3 C 29,5 C 17,7 km/h (3 Bft) 100 %
05.07.2017 16:20 29,6 C 29,5 C 29,6 C 43 % 1015,3 hPa 0,0 l/m 6,2 km/h (2 Bft) W 259 10 min 0,000 mm 613 W/m 15,7 C 29,6 C 17,7 km/h (3 Bft) 100 %
05.07.2017 16:30 29,6 C 29,5 C 29,6 C 44 % 1015,3 hPa 0,0 l/m 6,9 km/h (2 Bft) W-NW 298 10 min 0,000 mm 547 W/m 16,0 C 29,5 C 17,7 km/h (3 Bft) 100 %
05.07.2017 16:40 29,6 C 29,6 C 29,7 C 41 % 1015,2 hPa 0,0 l/m 10,3 km/h (2 Bft) W-NW 298 0 min 0,000 mm 148 W/m 14,9 C 29,2 C 20,9 km/h (4 Bft) 100 %
05.07.2017 16:50 29,6 C 29,6 C 29,7 C 41 % 1015,2 hPa 0,0 l/m 7,4 km/h (2 Bft) NW 304 10 min 0,000 mm 160 W/m 14,9 C 29,5 C 20,9 km/h (4 Bft) 100 %
05.07.2017 17:00 29,3 C 29,3 C 29,6 C 41 % 1015,1 hPa 0,0 l/m 9,3 km/h (2 Bft) W-NW 300 10 min 0,381 mm 169 W/m 14,7 C 29,0 C 20,9 km/h (4 Bft) 97 %
05.07.2017 17:10 29,3 C 29,3 C 29,3 C 45 % 1015,1 hPa 0,0 l/m 8,6 km/h (2 Bft) N-NW 333 0 min 0,000 mm 107 W/m 16,1 C 29,1 C 17,7 km/h (3 Bft) 98 %
05.07.2017 17:20 29,4 C 29,3 C 29,4 C 45 % 1015,0 hPa 0,0 l/m 8,7 km/h (2 Bft) N-NW 333 0 min 0,000 mm 90 W/m 16,2 C 29,1 C 19,3 km/h (3 Bft) 97 %
05.07.2017 17:30 29,1 C 29,1 C 29,4 C 46 % 1015,0 hPa 0,0 l/m 6,4 km/h (2 Bft) NW 315 0 min 0,000 mm 95 W/m 16,3 C 29,1 C 14,5 km/h (3 Bft) 97 %
05.07.2017 17:40 29,1 C 29,1 C 29,1 C 47 % 1015,0 hPa 0,0 l/m 7,8 km/h (2 Bft) N-NW 331 0 min 0,000 mm 69 W/m 16,6 C 28,9 C 16,1 km/h (3 Bft) 97 %
05.07.2017 17:50 29,1 C 29,1 C 29,1 C 44 % 1014,9 hPa 0,0 l/m 4,5 km/h (1 Bft) NW 306 0 min 0,000 mm 77 W/m 15,6 C 29,1 C 11,3 km/h (2 Bft) 97 %
05.07.2017 18:00 29,1 C 29,0 C 29,1 C 43 % 1014,9 hPa 0,0 l/m 5,1 km/h (1 Bft) NW 304 0 min 0,127 mm 67 W/m 15,2 C 29,1 C 14,5 km/h (3 Bft) 97 %
05.07.2017 18:10 28,9 C 28,9 C 29,1 C 46 % 1014,8 hPa 0,0 l/m 1,9 km/h (1 Bft) W 262 0 min 0,000 mm 83 W/m 16,1 C 28,9 C 9,7 km/h (2 Bft) 97 %
05.07.2017 18:20 28,8 C 28,8 C 28,9 C 47 % 1014,7 hPa 0,0 l/m 2,4 km/h (1 Bft) W-NW 299 0 min 0,000 mm 90 W/m 16,3 C 28,8 C 11,3 km/h (2 Bft) 97 %
05.07.2017 18:30 28,6 C 28,6 C 28,8 C 48 % 1014,7 hPa 0,0 l/m 4,4 km/h (1 Bft) NW 310 0 min 0,000 mm 120 W/m 16,5 C 28,6 C 16,1 km/h (3 Bft) 97 %
05.07.2017 18:40 28,2 C 28,2 C 28,6 C 50 % 1014,8 hPa 0,0 l/m 4,0 km/h (1 Bft) NW 317 0 min 0,000 mm 100 W/m 16,8 C 28,2 C 9,7 km/h (2 Bft) 97 %
05.07.2017 18:50 27,7 C 27,7 C 28,2 C 49 % 1014,7 hPa 0,0 l/m 2,2 km/h (1 Bft) NW 315 0 min 0,000 mm 74 W/m 16,0 C 27,7 C 8,0 km/h (2 Bft) 97 %
05.07.2017 19:00 27,1 C 27,1 C 27,7 C 57 % 1014,8 hPa 0,0 l/m 0,3 km/h (0 Bft) NW 318 0 min 0,101 mm 111 W/m 17,8 C 27,1 C 4,8 km/h (1 Bft) 98 %
05.07.2017 19:10 26,8 C 26,8 C 27,1 C 59 % 1014,7 hPa 0,0 l/m 1,5 km/h (1 Bft) NW 323 0 min 0,000 mm 84 W/m 18,1 C 26,8 C 6,4 km/h (2 Bft) 97 %
05.07.2017 19:20 26,4 C 26,4 C 26,8 C 60 % 1014,8 hPa 0,0 l/m 0,0 km/h (0 Bft) NW 323 0 min 0,000 mm 81 W/m 18,0 C 26,4 C 1,6 km/h (1 Bft) 97 %
05.07.2017 19:30 26,3 C 26,3 C 26,4 C 62 % 1014,7 hPa 0,0 l/m 0,0 km/h (0 Bft) NW 323 0 min 0,000 mm 83 W/m 18,4 C 26,3 C 0,0 km/h (0 Bft) 97 %
05.07.2017 19:40 26,0 C 26,0 C 26,3 C 61 % 1014,7 hPa 0,0 l/m 0,0 km/h (0 Bft) NW 323 10 min 0,000 mm 195 W/m 17,9 C 26,0 C 0,0 km/h (0 Bft) 97 %
05.07.2017 19:50 25,9 C 25,9 C 26,0 C 59 % 1014,7 hPa 0,0 l/m 0,0 km/h (0 Bft) NW 323 0 min 0,000 mm 62 W/m 17,3 C 25,9 C 0,0 km/h (0 Bft) 98 %
05.07.2017 20:00 25,7 C 25,7 C 25,9 C 59 % 1014,8 hPa 0,0 l/m 0,0 km/h (0 Bft) NW 323 0 min 0,000 mm 56 W/m 17,1 C 25,7 C 1,6 km/h (1 Bft) 97 %
05.07.2017 20:10 25,6 C 25,6 C 25,7 C 61 % 1014,7 hPa 0,0 l/m 0,0 km/h (0 Bft) NW 323 0 min 0,076 mm 47 W/m 17,5 C 25,6 C 0,0 km/h (0 Bft) 98 %
05.07.2017 20:20 25,5 C 25,5 C 25,6 C 60 % 1014,7 hPa 0,0 l/m 0,0 km/h (0 Bft) NW 323 0 min 0,000 mm 47 W/m 17,2 C 25,5 C 0,0 km/h (0 Bft) 97 %
05.07.2017 20:30 25,4 C 25,4 C 25,6 C 61 % 1014,8 hPa 0,0 l/m 0,0 km/h (0 Bft) NW 323 0 min 0,000 mm 39 W/m 17,3 C 25,4 C 0,0 km/h (0 Bft) 98 %
05.07.2017 20:40 25,2 C 25,1 C 25,4 C 62 % 1014,8 hPa 0,0 l/m 0,0 km/h (0 Bft) NW 323 0 min 0,000 mm 32 W/m 17,4 C 25,2 C 0,0 km/h (0 Bft) 97 %
05.07.2017 20:50 24,8 C 24,8 C 25,2 C 60 % 1014,9 hPa 0,0 l/m 0,0 km/h (0 Bft) NW 323 0 min 0,000 mm 28 W/m 16,5 C 24,8 C 0,0 km/h (0 Bft) 97 %
05.07.2017 21:00 24,3 C 24,3 C 24,8 C 63 % 1014,8 hPa 0,0 l/m 0,0 km/h (0 Bft) NW 323 0 min 0,000 mm 19 W/m 16,8 C 24,3 C 0,0 km/h (0 Bft) 98 %
05.07.2017 21:10 23,9 C 23,9 C 24,3 C 63 % 1014,8 hPa 0,0 l/m 0,0 km/h (0 Bft) N 0 0 min 0,000 mm 19 W/m 16,4 C 23,9 C 0,0 km/h (0 Bft) 100 %
05.07.2017 21:20 23,4 C 23,4 C 23,9 C 62 % 1015,0 hPa 0,0 l/m 0,0 km/h (0 Bft) N 0 0 min 0,000 mm 18 W/m 15,7 C 23,4 C 0,0 km/h (0 Bft) 100 %
05.07.2017 21:30 23,1 C 23,1 C 23,4 C 64 % 1014,9 hPa 0,0 l/m 0,0 km/h (0 Bft) N 0 0 min 0,000 mm 11 W/m 15,9 C 23,1 C 0,0 km/h (0 Bft) 100 %
05.07.2017 21:40 22,7 C 22,7 C 23,1 C 65 % 1015,0 hPa 0,0 l/m 0,0 km/h (0 Bft) N 0 0 min 0,000 mm 7 W/m 15,8 C 22,7 C 0,0 km/h (0 Bft) 100 %
05.07.2017 21:50 22,4 C 22,4 C 22,7 C 67 % 1015,1 hPa 0,0 l/m 0,0 km/h (0 Bft) N 0 0 min 0,000 mm 0 W/m 16,0 C 22,4 C 0,0 km/h (0 Bft) 100 %
05.07.2017 22:00 22,0 C 22,0 C 22,4 C 64 % 1015,1 hPa 0,0 l/m 0,0 km/h (0 Bft) N 0 0 min 0,025 mm 0 W/m 14,9 C 22,0 C 0,0 km/h (0 Bft) 100 %
05.07.2017 22:10 21,8 C 21,8 C 22,0 C 66 % 1015,2 hPa 0,0 l/m 0,0 km/h (0 Bft) N 0 0 min 0,000 mm 0 W/m 15,2 C 21,8 C 0,0 km/h (0 Bft) 100 %
05.07.2017 22:20 21,5 C 21,5 C 21,8 C 64 % 1015,3 hPa 0,0 l/m 0,0 km/h (0 Bft) N 0 0 min 0,000 mm 0 W/m 14,4 C 21,5 C 0,0 km/h (0 Bft) 100 %
05.07.2017 22:30 21,3 C 21,3 C 21,5 C 67 % 1015,3 hPa 0,0 l/m 0,0 km/h (0 Bft) N 0 0 min 0,000 mm 0 W/m 14,9 C 21,3 C 0,0 km/h (0 Bft) 100 %
05.07.2017 22:40 20,9 C 20,9 C 21,3 C 68 % 1015,3 hPa 0,0 l/m 0,0 km/h (0 Bft) N 0 0 min 0,000 mm 0 W/m 14,8 C 20,9 C 0,0 km/h (0 Bft) 100 %
05.07.2017 22:50 20,6 C 20,6 C 20,9 C 68 % 1015,4 hPa 0,0 l/m 0,0 km/h (0 Bft) N 0 0 min 0,000 mm 0 W/m 14,5 C 20,6 C 0,0 km/h (0 Bft) 100 %
05.07.2017 23:00 20,3 C 20,3 C 20,6 C 71 % 1015,4 hPa 0,0 l/m 0,0 km/h (0 Bft) N 0 0 min 0,025 mm 0 W/m 14,9 C 20,3 C 0,0 km/h (0 Bft) 100 %
05.07.2017 23:10 20,1 C 20,0 C 20,3 C 70 % 1015,5 hPa 0,0 l/m 0,0 km/h (0 Bft) N 0 0 min 0,000 mm 0 W/m 14,5 C 20,1 C 0,0 km/h (0 Bft) 100 %
05.07.2017 23:20 19,8 C 19,8 C 20,0 C 72 % 1015,5 hPa 0,0 l/m 0,0 km/h (0 Bft) N 0 0 min 0,000 mm 0 W/m 14,6 C 19,8 C 0,0 km/h (0 Bft) 100 %
05.07.2017 23:30 19,6 C 19,6 C 19,8 C 73 % 1015,5 hPa 0,0 l/m 0,0 km/h (0 Bft) N 0 0 min 0,000 mm 0 W/m 14,6 C 19,6 C 0,0 km/h (0 Bft) 100 %
05.07.2017 23:40 19,3 C 19,3 C 19,6 C 74 % 1015,5 hPa 0,0 l/m 0,0 km/h (0 Bft) N 0 0 min 0,000 mm 0 W/m 14,5 C 19,3 C 0,0 km/h (0 Bft) 100 %
05.07.2017 23:50 19,1 C 19,1 C 19,3 C 76 % 1015,6 hPa 0,0 l/m 0,0 km/h (0 Bft) N 0 0 min 0,000 mm 0 W/m 14,8 C 19,1 C 0,0 km/h (0 Bft) 100 %
_ Min-Zeit 06:00 06:00 06:20 16:40 18:20 - 00:00 - - - - - 06:10 06:00 00:00 00:30
Minimum _ 12,1 C 12,1 C 12,1 C 41 % 1014,7 hPa - 0,0 km/h (0 Bft) - - - - - 10,5 C 12,1 C 0,0 km/h (0 Bft) 89 %
_ Max-Zeit 16:40 16:40 16:40 05:50 00:00 00:00 15:50 - - 08:20 13:00 13:10 12:00 15:40 14:00 00:10
Maximum _ 29,7 C 29,6 C 29,7 C 91 % 1017,8 hPa 0,0 l/m 10,4 km/h
W-NW (2 Bft)
- - 10 min 0,635 mm 1011 W/m 18,9 C 29,6 C 22,5 km/h
W-SW (4 Bft)
100 %
Durchschnitt _ 21,5 C 21,4 C 21,6 C 69 % 1016,1 hPa #0,0 l/m 2,3 km/h (1 Bft) W-NW - #8:40 h #4,520 mm 383 W/m 14,9 C 21,5 C 6,3 km/h (2 Bft) 99 %
PRIVATE WETTERSTATION BILLIGHEIM-ALLFELD - www.neckar-odenwald-wetter.de - Holger Sonntag